sensor_id;sensor_type;location;lat;lon;timestamp;pressure;altitude;pressure_sealevel;temperature;humidity
40460;BME280;26164;51.138;16.952;2022-12-07T00:01:14;77254.19;;;-146.39;100.00
40460;BME280;26164;51.138;16.952;2022-12-07T00:03:41;77254.19;;;-146.39;100.00
40460;BME280;26164;51.138;16.952;2022-12-07T00:06:12;77254.19;;;-146.39;100.00
40460;BME280;26164;51.138;16.952;2022-12-07T00:08:40;77241.94;;;-146.39;100.00
40460;BME280;26164;51.138;16.952;2022-12-07T00:11:41;77258.28;;;-146.39;100.00
40460;BME280;26164;51.138;16.952;2022-12-07T00:14:25;77248.06;;;-146.39;100.00
40460;BME280;26164;51.138;16.952;2022-12-07T00:17:17;77241.94;;;-146.39;100.00
40460;BME280;26164;51.138;16.952;2022-12-07T00:20:16;77235.81;;;-146.39;100.00
40460;BME280;26164;51.138;16.952;2022-12-07T00:23:08;77237.88;;;-146.39;100.00
40460;BME280;26164;51.138;16.952;2022-12-07T00:25:35;77229.69;;;-146.39;100.00
40460;BME280;26164;51.138;16.952;2022-12-07T00:28:03;77233.78;;;-146.39;100.00
40460;BME280;26164;51.138;16.952;2022-12-07T00:30:32;77239.91;;;-146.39;100.00
40460;BME280;26164;51.138;16.952;2022-12-07T00:32:58;77239.91;;;-146.39;100.00
40460;BME280;26164;51.138;16.952;2022-12-07T00:35:28;77235.81;;;-146.39;100.00
40460;BME280;26164;51.138;16.952;2022-12-07T00:37:57;77241.94;;;-146.39;100.00
40460;BME280;26164;51.138;16.952;2022-12-07T00:40:24;77241.94;;;-146.39;100.00
40460;BME280;26164;51.138;16.952;2022-12-07T00:42:50;77246.03;;;-146.39;100.00
40460;BME280;26164;51.138;16.952;2022-12-07T00:45:16;77225.63;;;-146.39;100.00
40460;BME280;26164;51.138;16.952;2022-12-07T00:47:42;77248.06;;;-146.39;100.00
40460;BME280;26164;51.138;16.952;2022-12-07T00:50:10;77223.56;;;-146.39;100.00
40460;BME280;26164;51.138;16.952;2022-12-07T00:52:36;77237.88;;;-146.39;100.00
40460;BME280;26164;51.138;16.952;2022-12-07T00:55:03;77241.94;;;-146.39;100.00
40460;BME280;26164;51.138;16.952;2022-12-07T00:57:30;77235.81;;;-146.39;100.00
40460;BME280;26164;51.138;16.952;2022-12-07T00:59:56;77244.00;;;-146.39;100.00
40460;BME280;26164;51.138;16.952;2022-12-07T01:02:23;77250.13;;;-146.39;100.00
40460;BME280;26164;51.138;16.952;2022-12-07T01:04:49;77258.28;;;-146.39;100.00
40460;BME280;26164;51.138;16.952;2022-12-07T01:07:15;77246.03;;;-146.39;100.00
40460;BME280;26164;51.138;16.952;2022-12-07T01:09:42;77250.13;;;-146.39;100.00
40460;BME280;26164;51.138;16.952;2022-12-07T01:12:08;77246.03;;;-146.39;100.00
40460;BME280;26164;51.138;16.952;2022-12-07T01:14:36;77246.03;;;-146.39;100.00
40460;BME280;26164;51.138;16.952;2022-12-07T01:17:04;77250.13;;;-146.39;100.00
40460;BME280;26164;51.138;16.952;2022-12-07T01:19:50;77246.03;;;-146.39;100.00
40460;BME280;26164;51.138;16.952;2022-12-07T01:22:17;77246.03;;;-146.39;100.00
40460;BME280;26164;51.138;16.952;2022-12-07T01:24:45;77233.78;;;-146.39;100.00
40460;BME280;26164;51.138;16.952;2022-12-07T01:27:13;77229.69;;;-146.39;100.00
40460;BME280;26164;51.138;16.952;2022-12-07T01:29:39;77227.66;;;-146.39;100.00
40460;BME280;26164;51.138;16.952;2022-12-07T01:32:06;77237.88;;;-146.39;100.00
40460;BME280;26164;51.138;16.952;2022-12-07T01:34:32;77233.78;;;-146.39;100.00
40460;BME280;26164;51.138;16.952;2022-12-07T01:36:58;77250.13;;;-146.39;100.00
40460;BME280;26164;51.138;16.952;2022-12-07T01:39:24;77241.94;;;-146.39;100.00
40460;BME280;26164;51.138;16.952;2022-12-07T01:41:51;77237.88;;;-146.39;100.00
40460;BME280;26164;51.138;16.952;2022-12-07T01:44:28;77250.13;;;-146.39;100.00
40460;BME280;26164;51.138;16.952;2022-12-07T01:46:58;77246.03;;;-146.39;100.00
40460;BME280;26164;51.138;16.952;2022-12-07T01:52:13;77254.19;;;-146.39;100.00
40460;BME280;26164;51.138;16.952;2022-12-07T01:54:44;77276.66;;;-146.39;100.00
40460;BME280;26164;51.138;16.952;2022-12-07T01:57:14;77274.63;;;-146.39;100.00
40460;BME280;26164;51.138;16.952;2022-12-07T01:59:42;77270.53;;;-146.39;100.00
40460;BME280;26164;51.138;16.952;2022-12-07T02:02:17;77270.53;;;-146.39;100.00
40460;BME280;26164;51.138;16.952;2022-12-07T02:04:45;77286.88;;;-146.39;100.00
40460;BME280;26164;51.138;16.952;2022-12-07T02:07:12;77286.88;;;-146.39;100.00
40460;BME280;26164;51.138;16.952;2022-12-07T02:09:38;77274.63;;;-146.39;100.00
40460;BME280;26164;51.138;16.952;2022-12-07T02:12:04;77278.72;;;-146.39;100.00
40460;BME280;26164;51.138;16.952;2022-12-07T02:14:30;77288.91;;;-146.39;100.00
40460;BME280;26164;51.138;16.952;2022-12-07T02:17:14;77282.78;;;-146.39;100.00
40460;BME280;26164;51.138;16.952;2022-12-07T02:20:05;77282.78;;;-146.39;100.00
40460;BME280;26164;51.138;16.952;2022-12-07T02:28:34;77290.97;;;-146.39;100.00
40460;BME280;26164;51.138;16.952;2022-12-07T02:31:08;77290.97;;;-146.39;100.00
40460;BME280;26164;51.138;16.952;2022-12-07T02:33:55;77290.97;;;-146.39;100.00
40460;BME280;26164;51.138;16.952;2022-12-07T02:36:28;77307.28;;;-146.39;100.00
40460;BME280;26164;51.138;16.952;2022-12-07T02:39:07;77295.03;;;-146.39;100.00
40460;BME280;26164;51.138;16.952;2022-12-07T02:41:43;77295.03;;;-146.39;100.00
40460;BME280;26164;51.138;16.952;2022-12-07T02:44:14;77295.03;;;-146.39;100.00
40460;BME280;26164;51.138;16.952;2022-12-07T02:46:49;77295.03;;;-146.39;100.00
40460;BME280;26164;51.138;16.952;2022-12-07T02:49:21;77288.91;;;-146.39;100.00
40460;BME280;26164;51.138;16.952;2022-12-07T02:51:49;77286.88;;;-146.39;100.00
40460;BME280;26164;51.138;16.952;2022-12-07T02:54:20;77295.03;;;-146.39;100.00
40460;BME280;26164;51.138;16.952;2022-12-07T02:56:50;77282.78;;;-146.39;100.00
40460;BME280;26164;51.138;16.952;2022-12-07T03:02:20;77278.72;;;-146.39;100.00
40460;BME280;26164;51.138;16.952;2022-12-07T03:08:06;77293.00;;;-146.39;100.00
40460;BME280;26164;51.138;16.952;2022-12-07T03:13:31;77272.56;;;-146.39;100.00
40460;BME280;26164;51.138;16.952;2022-12-07T03:18:35;77282.78;;;-146.39;100.00
40460;BME280;26164;51.138;16.952;2022-12-07T03:21:09;77282.78;;;-146.39;100.00
40460;BME280;26164;51.138;16.952;2022-12-07T03:23:38;77284.84;;;-146.39;100.00
40460;BME280;26164;51.138;16.952;2022-12-07T03:26:09;77282.78;;;-146.39;100.00
40460;BME280;26164;51.138;16.952;2022-12-07T03:28:42;77278.72;;;-146.39;100.00
40460;BME280;26164;51.138;16.952;2022-12-07T03:36:32;77272.56;;;-146.39;100.00
40460;BME280;26164;51.138;16.952;2022-12-07T03:39:19;77276.66;;;-146.39;100.00
40460;BME280;26164;51.138;16.952;2022-12-07T03:41:49;77270.53;;;-146.39;100.00
40460;BME280;26164;51.138;16.952;2022-12-07T03:44:15;77274.63;;;-146.39;100.00
40460;BME280;26164;51.138;16.952;2022-12-07T03:46:44;77270.53;;;-146.39;100.00
40460;BME280;26164;51.138;16.952;2022-12-07T03:49:32;77262.38;;;-146.39;100.00
40460;BME280;26164;51.138;16.952;2022-12-07T03:54:41;77254.19;;;-146.39;100.00
40460;BME280;26164;51.138;16.952;2022-12-07T03:57:11;77262.38;;;-146.39;100.00
40460;BME280;26164;51.138;16.952;2022-12-07T03:59:38;77254.19;;;-146.39;100.00
40460;BME280;26164;51.138;16.952;2022-12-07T04:02:06;77262.38;;;-146.39;100.00
40460;BME280;26164;51.138;16.952;2022-12-07T04:04:33;77254.19;;;-146.39;100.00
40460;BME280;26164;51.138;16.952;2022-12-07T04:07:00;77254.19;;;-146.39;100.00
40460;BME280;26164;51.138;16.952;2022-12-07T04:09:26;77248.06;;;-146.39;100.00
40460;BME280;26164;51.138;16.952;2022-12-07T04:11:52;77262.38;;;-146.39;100.00
40460;BME280;26164;51.138;16.952;2022-12-07T04:14:18;77260.31;;;-146.39;100.00
40460;BME280;26164;51.138;16.952;2022-12-07T04:16:56;77252.16;;;-146.39;100.00
40460;BME280;26164;51.138;16.952;2022-12-07T04:19:25;77256.25;;;-146.39;100.00
40460;BME280;26164;51.138;16.952;2022-12-07T04:21:52;77254.19;;;-146.39;100.00
40460;BME280;26164;51.138;16.952;2022-12-07T04:24:19;77262.38;;;-146.39;100.00
40460;BME280;26164;51.138;16.952;2022-12-07T04:26:46;77260.31;;;-146.39;100.00
40460;BME280;26164;51.138;16.952;2022-12-07T04:29:18;77262.38;;;-146.39;100.00
40460;BME280;26164;51.138;16.952;2022-12-07T04:31:45;77266.44;;;-146.39;100.00
40460;BME280;26164;51.138;16.952;2022-12-07T04:34:12;77268.50;;;-146.39;100.00
40460;BME280;26164;51.138;16.952;2022-12-07T04:36:39;77270.53;;;-146.39;100.00
40460;BME280;26164;51.138;16.952;2022-12-07T04:39:06;77270.53;;;-146.39;100.00
40460;BME280;26164;51.138;16.952;2022-12-07T04:41:33;77282.78;;;-146.39;100.00
40460;BME280;26164;51.138;16.952;2022-12-07T04:44:05;77270.53;;;-146.39;100.00
40460;BME280;26164;51.138;16.952;2022-12-07T04:46:50;77274.63;;;-146.39;100.00
40460;BME280;26164;51.138;16.952;2022-12-07T04:49:32;77272.56;;;-146.39;100.00
40460;BME280;26164;51.138;16.952;2022-12-07T04:51:59;77272.56;;;-146.39;100.00
40460;BME280;26164;51.138;16.952;2022-12-07T04:54:26;77264.41;;;-146.39;100.00
40460;BME280;26164;51.138;16.952;2022-12-07T04:56:53;77266.44;;;-146.39;100.00
40460;BME280;26164;51.138;16.952;2022-12-07T04:59:25;77254.19;;;-146.39;100.00
40460;BME280;26164;51.138;16.952;2022-12-07T05:01:51;77254.19;;;-146.39;100.00
40460;BME280;26164;51.138;16.952;2022-12-07T05:04:17;77246.03;;;-146.39;100.00
40460;BME280;26164;51.138;16.952;2022-12-07T05:06:44;77244.00;;;-146.39;100.00
40460;BME280;26164;51.138;16.952;2022-12-07T05:09:10;77241.94;;;-146.39;100.00
40460;BME280;26164;51.138;16.952;2022-12-07T05:11:36;77237.88;;;-146.39;100.00
40460;BME280;26164;51.138;16.952;2022-12-07T05:14:17;77229.69;;;-146.39;100.00
40460;BME280;26164;51.138;16.952;2022-12-07T05:16:44;77225.63;;;-146.39;100.00
40460;BME280;26164;51.138;16.952;2022-12-07T05:19:12;77227.66;;;-146.39;100.00
40460;BME280;26164;51.138;16.952;2022-12-07T05:21:40;77219.50;;;-146.39;100.00
40460;BME280;26164;51.138;16.952;2022-12-07T05:24:10;77225.63;;;-146.39;100.00
40460;BME280;26164;51.138;16.952;2022-12-07T05:26:37;77217.44;;;-146.39;100.00
40460;BME280;26164;51.138;16.952;2022-12-07T05:29:04;77209.28;;;-146.39;100.00
40460;BME280;26164;51.138;16.952;2022-12-07T05:31:30;77221.53;;;-146.39;100.00
40460;BME280;26164;51.138;16.952;2022-12-07T05:33:57;77209.28;;;-146.39;100.00
40460;BME280;26164;51.138;16.952;2022-12-07T05:36:23;77205.19;;;-146.39;100.00
40460;BME280;26164;51.138;16.952;2022-12-07T05:38:49;77205.19;;;-146.39;100.00
40460;BME280;26164;51.138;16.952;2022-12-07T05:41:17;77213.38;;;-146.39;100.00
40460;BME280;26164;51.138;16.952;2022-12-07T05:44:22;77205.19;;;-146.39;100.00
40460;BME280;26164;51.138;16.952;2022-12-07T05:46:49;77209.28;;;-146.39;100.00
40460;BME280;26164;51.138;16.952;2022-12-07T05:49:16;77205.19;;;-146.39;100.00
40460;BME280;26164;51.138;16.952;2022-12-07T05:51:46;77211.31;;;-146.39;100.00
40460;BME280;26164;51.138;16.952;2022-12-07T05:54:16;77201.13;;;-146.39;100.00
40460;BME280;26164;51.138;16.952;2022-12-07T05:56:42;77201.13;;;-146.39;100.00
40460;BME280;26164;51.138;16.952;2022-12-07T05:59:09;77201.13;;;-146.39;100.00
40460;BME280;26164;51.138;16.952;2022-12-07T06:02:02;77197.03;;;-146.39;100.00
40460;BME280;26164;51.138;16.952;2022-12-07T06:04:45;77192.94;;;-146.39;100.00
40460;BME280;26164;51.138;16.952;2022-12-07T06:07:13;77186.81;;;-146.39;100.00
40460;BME280;26164;51.138;16.952;2022-12-07T06:09:40;77197.03;;;-146.39;100.00
40460;BME280;26164;51.138;16.952;2022-12-07T06:12:10;77195.00;;;-146.39;100.00
40460;BME280;26164;51.138;16.952;2022-12-07T06:14:57;77192.94;;;-146.39;100.00
40460;BME280;26164;51.138;16.952;2022-12-07T06:17:24;77188.88;;;-146.39;100.00
40460;BME280;26164;51.138;16.952;2022-12-07T06:19:50;77184.78;;;-146.39;100.00
40460;BME280;26164;51.138;16.952;2022-12-07T06:22:16;77188.88;;;-146.39;100.00
40460;BME280;26164;51.138;16.952;2022-12-07T06:30:34;77176.63;;;-146.39;100.00
40460;BME280;26164;51.138;16.952;2022-12-07T06:33:02;77176.63;;;-146.39;100.00
40460;BME280;26164;51.138;16.952;2022-12-07T06:35:29;77160.28;;;-146.39;100.00
40460;BME280;26164;51.138;16.952;2022-12-07T06:37:57;77176.63;;;-146.39;100.00
40460;BME280;26164;51.138;16.952;2022-12-07T06:40:23;77176.63;;;-146.39;100.00
40460;BME280;26164;51.138;16.952;2022-12-07T06:42:49;77172.53;;;-146.39;100.00
40460;BME280;26164;51.138;16.952;2022-12-07T06:45:16;77164.38;;;-146.39;100.00
40460;BME280;26164;51.138;16.952;2022-12-07T06:47:42;77168.44;;;-146.39;100.00
40460;BME280;26164;51.138;16.952;2022-12-07T06:50:08;77172.53;;;-146.39;100.00
40460;BME280;26164;51.138;16.952;2022-12-07T06:52:34;77176.63;;;-146.39;100.00
40460;BME280;26164;51.138;16.952;2022-12-07T06:55:00;77164.38;;;-146.39;100.00
40460;BME280;26164;51.138;16.952;2022-12-07T06:57:26;77168.44;;;-146.39;100.00
40460;BME280;26164;51.138;16.952;2022-12-07T06:59:52;77168.44;;;-146.39;100.00
40460;BME280;26164;51.138;16.952;2022-12-07T07:02:19;77160.28;;;-146.39;100.00
40460;BME280;26164;51.138;16.952;2022-12-07T07:04:45;77158.25;;;-146.39;100.00
40460;BME280;26164;51.138;16.952;2022-12-07T07:07:29;77156.19;;;-146.39;100.00
40460;BME280;26164;51.138;16.952;2022-12-07T07:10:15;77154.16;;;-146.39;100.00
40460;BME280;26164;51.138;16.952;2022-12-07T07:13:20;77160.28;;;-146.39;100.00
40460;BME280;26164;51.138;16.952;2022-12-07T07:16:29;77148.03;;;-146.39;100.00
40460;BME280;26164;51.138;16.952;2022-12-07T07:25:37;77150.06;;;-146.39;100.00
40460;BME280;26164;51.138;16.952;2022-12-07T09:11:23;76984.69;;;-146.39;100.00
40460;BME280;26164;51.138;16.952;2022-12-07T09:15:14;76966.31;;;-146.39;100.00
40460;BME280;26164;51.138;16.952;2022-12-07T09:18:43;76939.78;;;-146.39;100.00
40460;BME280;26164;51.138;16.952;2022-12-07T09:21:38;76923.44;;;-146.39;100.00
40460;BME280;26164;51.138;16.952;2022-12-07T09:24:31;76900.97;;;-146.39;100.00
40460;BME280;26164;51.138;16.952;2022-12-07T09:28:12;76903.03;;;-146.39;100.00
40460;BME280;26164;51.138;16.952;2022-12-07T09:31:44;76903.03;;;-146.39;100.00
40460;BME280;26164;51.138;16.952;2022-12-07T11:39:39;76890.78;;;-146.39;100.00
40460;BME280;26164;51.138;16.952;2022-12-07T11:43:30;76888.72;;;-146.39;100.00
40460;BME280;26164;51.138;16.952;2022-12-07T12:58:31;76839.72;;;-146.39;100.00
40460;BME280;26164;51.138;16.952;2022-12-07T13:01:56;76833.59;;;-146.39;100.00
40460;BME280;26164;51.138;16.952;2022-12-07T13:08:01;76833.59;;;-146.39;100.00
40460;BME280;26164;51.138;16.952;2022-12-07T13:18:03;76854.03;;;-146.39;100.00
40460;BME280;26164;51.138;16.952;2022-12-07T13:28:13;76843.81;;;-146.39;100.00
40460;BME280;26164;51.138;16.952;2022-12-07T13:37:01;76841.78;;;-146.39;100.00
40460;BME280;26164;51.138;16.952;2022-12-07T13:39:35;76845.84;;;-146.39;100.00
40460;BME280;26164;51.138;16.952;2022-12-07T13:42:33;76847.91;;;-146.39;100.00
40460;BME280;26164;51.138;16.952;2022-12-07T13:45:23;76862.19;;;-146.39;100.00
40460;BME280;26164;51.138;16.952;2022-12-07T13:48:59;76858.09;;;-146.39;100.00
40460;BME280;26164;51.138;16.952;2022-12-07T13:51:03;76858.09;;;-146.39;100.00
40460;BME280;26164;51.138;16.952;2022-12-07T13:53:30;76862.19;;;-146.39;100.00
40460;BME280;26164;51.138;16.952;2022-12-07T13:56:13;76870.34;;;-146.39;100.00
40460;BME280;26164;51.138;16.952;2022-12-07T13:58:51;76864.22;;;-146.39;100.00
40460;BME280;26164;51.138;16.952;2022-12-07T14:01:20;76862.19;;;-146.39;100.00
40460;BME280;26164;51.138;16.952;2022-12-07T14:03:53;76862.19;;;-146.39;100.00
40460;BME280;26164;51.138;16.952;2022-12-07T14:06:26;76870.34;;;-146.39;100.00
40460;BME280;26164;51.138;16.952;2022-12-07T14:09:08;76866.28;;;-146.39;100.00
40460;BME280;26164;51.138;16.952;2022-12-07T14:11:38;76870.34;;;-146.39;100.00
40460;BME280;26164;51.138;16.952;2022-12-07T14:14:05;76862.19;;;-146.39;100.00
40460;BME280;26164;51.138;16.952;2022-12-07T14:19:51;76864.22;;;-146.39;100.00
40460;BME280;26164;51.138;16.952;2022-12-07T14:22:55;76866.28;;;-146.39;100.00
40460;BME280;26164;51.138;16.952;2022-12-07T14:25:27;76866.28;;;-146.39;100.00
40460;BME280;26164;51.138;16.952;2022-12-07T14:27:58;76878.53;;;-146.39;100.00
40460;BME280;26164;51.138;16.952;2022-12-07T14:30:48;76874.44;;;-146.39;100.00
40460;BME280;26164;51.138;16.952;2022-12-07T14:33:19;76872.41;;;-146.39;100.00
40460;BME280;26164;51.138;16.952;2022-12-07T14:35:55;76886.69;;;-146.39;100.00
40460;BME280;26164;51.138;16.952;2022-12-07T14:38:27;76884.66;;;-146.39;100.00
40460;BME280;26164;51.138;16.952;2022-12-07T14:40:56;76890.78;;;-146.39;100.00
40460;BME280;26164;51.138;16.952;2022-12-07T14:43:55;76890.78;;;-146.39;100.00
40460;BME280;26164;51.138;16.952;2022-12-07T14:46:31;76894.84;;;-146.39;100.00
40460;BME280;26164;51.138;16.952;2022-12-07T14:49:02;76905.06;;;-146.39;100.00
40460;BME280;26164;51.138;16.952;2022-12-07T14:51:36;76907.09;;;-146.39;100.00
40460;BME280;26164;51.138;16.952;2022-12-07T14:54:20;76903.03;;;-146.39;100.00
40460;BME280;26164;51.138;16.952;2022-12-07T14:56:50;76911.19;;;-146.39;100.00
40460;BME280;26164;51.138;16.952;2022-12-07T14:59:21;76915.28;;;-146.39;100.00
40460;BME280;26164;51.138;16.952;2022-12-07T15:01:50;76919.34;;;-146.39;100.00
40460;BME280;26164;51.138;16.952;2022-12-07T15:04:20;76935.69;;;-146.39;100.00
40460;BME280;26164;51.138;16.952;2022-12-07T15:06:59;76943.84;;;-146.39;100.00
40460;BME280;26164;51.138;16.952;2022-12-07T15:09:29;76956.09;;;-146.39;100.00
40460;BME280;26164;51.138;16.952;2022-12-07T15:11:58;76956.09;;;-146.39;100.00
40460;BME280;26164;51.138;16.952;2022-12-07T15:14:44;76968.34;;;-146.39;100.00
40460;BME280;26164;51.138;16.952;2022-12-07T15:17:25;76968.34;;;-146.39;100.00
40460;BME280;26164;51.138;16.952;2022-12-07T15:20:00;76980.59;;;-146.39;100.00
40460;BME280;26164;51.138;16.952;2022-12-07T15:22:29;76984.69;;;-146.39;100.00
40460;BME280;26164;51.138;16.952;2022-12-07T15:25:14;76990.81;;;-146.39;100.00
40460;BME280;26164;51.138;16.952;2022-12-07T15:27:58;76992.84;;;-146.39;100.00
40460;BME280;26164;51.138;16.952;2022-12-07T15:33:30;76994.91;;;-146.39;100.00
40460;BME280;26164;51.138;16.952;2022-12-07T15:36:23;76992.84;;;-146.39;100.00
40460;BME280;26164;51.138;16.952;2022-12-07T15:38:57;76988.78;;;-146.39;100.00
40460;BME280;26164;51.138;16.952;2022-12-07T15:41:43;76994.91;;;-146.39;100.00
40460;BME280;26164;51.138;16.952;2022-12-07T15:44:38;77001.03;;;-146.39;100.00
40460;BME280;26164;51.138;16.952;2022-12-07T15:47:45;77019.41;;;-146.39;100.00
40460;BME280;26164;51.138;16.952;2022-12-07T15:50:43;77021.44;;;-146.39;100.00
40460;BME280;26164;51.138;16.952;2022-12-07T15:53:37;77017.34;;;-146.39;100.00
40460;BME280;26164;51.138;16.952;2022-12-07T15:56:22;77019.41;;;-146.39;100.00
40460;BME280;26164;51.138;16.952;2022-12-07T16:03:08;77025.53;;;-146.39;100.00
40460;BME280;26164;51.138;16.952;2022-12-07T16:05:36;77021.44;;;-146.39;100.00
40460;BME280;26164;51.138;16.952;2022-12-07T16:08:10;77015.31;;;-146.39;100.00
40460;BME280;26164;51.138;16.952;2022-12-07T16:13:49;77017.34;;;-146.39;100.00
40460;BME280;26164;51.138;16.952;2022-12-07T16:16:21;77025.53;;;-146.39;100.00
40460;BME280;26164;51.138;16.952;2022-12-07T16:19:18;77029.59;;;-146.39;100.00
40460;BME280;26164;51.138;16.952;2022-12-07T16:22:43;77043.91;;;-146.39;100.00
40460;BME280;26164;51.138;16.952;2022-12-07T16:29:37;77062.28;;;-146.39;100.00
40460;BME280;26164;51.138;16.952;2022-12-07T16:32:28;77056.16;;;-146.39;100.00
40460;BME280;26164;51.138;16.952;2022-12-07T16:35:15;77064.31;;;-146.39;100.00
40460;BME280;26164;51.138;16.952;2022-12-07T16:38:00;77062.28;;;-146.39;100.00
40460;BME280;26164;51.138;16.952;2022-12-07T16:40:49;77070.44;;;-146.39;100.00
40460;BME280;26164;51.138;16.952;2022-12-07T16:43:23;77074.53;;;-146.39;100.00
40460;BME280;26164;51.138;16.952;2022-12-07T16:46:32;77086.78;;;-146.39;100.00
40460;BME280;26164;51.138;16.952;2022-12-07T16:49:40;77086.78;;;-146.39;100.00
40460;BME280;26164;51.138;16.952;2022-12-07T16:53:35;77099.03;;;-146.39;100.00
40460;BME280;26164;51.138;16.952;2022-12-07T16:57:03;77094.94;;;-146.39;100.00
40460;BME280;26164;51.138;16.952;2022-12-07T17:00:10;77103.09;;;-146.39;100.00
40460;BME280;26164;51.138;16.952;2022-12-07T17:06:26;77119.44;;;-146.39;100.00
40460;BME280;26164;51.138;16.952;2022-12-07T17:10:17;77131.69;;;-146.39;100.00
40460;BME280;26164;51.138;16.952;2022-12-07T17:13:32;77139.84;;;-146.39;100.00
40460;BME280;26164;51.138;16.952;2022-12-07T17:17:00;77148.03;;;-146.39;100.00
40460;BME280;26164;51.138;16.952;2022-12-07T17:23:58;77164.38;;;-146.39;100.00
40460;BME280;26164;51.138;16.952;2022-12-07T17:27:04;77168.44;;;-146.39;100.00
40460;BME280;26164;51.138;16.952;2022-12-07T17:30:44;77176.63;;;-146.39;100.00
40460;BME280;26164;51.138;16.952;2022-12-07T17:33:36;77197.03;;;-146.39;100.00
40460;BME280;26164;51.138;16.952;2022-12-07T17:37:24;77201.13;;;-146.39;100.00
40460;BME280;26164;51.138;16.952;2022-12-07T17:40:19;77213.38;;;-146.39;100.00
40460;BME280;26164;51.138;16.952;2022-12-07T17:43:59;77221.53;;;-146.39;100.00
40460;BME280;26164;51.138;16.952;2022-12-07T17:47:25;77229.69;;;-146.39;100.00
40460;BME280;26164;51.138;16.952;2022-12-07T17:54:54;77241.94;;;-146.39;100.00
40460;BME280;26164;51.138;16.952;2022-12-07T17:58:14;77246.03;;;-146.39;100.00
40460;BME280;26164;51.138;16.952;2022-12-07T18:01:22;77248.06;;;-146.39;100.00
40460;BME280;26164;51.138;16.952;2022-12-07T18:04:17;77254.19;;;-146.39;100.00
40460;BME280;26164;51.138;16.952;2022-12-07T18:12:57;77270.53;;;-146.39;100.00
40460;BME280;26164;51.138;16.952;2022-12-07T18:18:48;77286.88;;;-146.39;100.00
40460;BME280;26164;51.138;16.952;2022-12-07T18:31:14;77301.16;;;-146.39;100.00
40460;BME280;26164;51.138;16.952;2022-12-07T18:33:46;77303.22;;;-146.39;100.00
40460;BME280;26164;51.138;16.952;2022-12-07T18:36:14;77303.22;;;-146.39;100.00
40460;BME280;26164;51.138;16.952;2022-12-07T18:38:44;77305.25;;;-146.39;100.00
40460;BME280;26164;51.138;16.952;2022-12-07T18:41:31;77311.38;;;-146.39;100.00
40460;BME280;26164;51.138;16.952;2022-12-07T18:48:01;77309.34;;;-146.39;100.00
40460;BME280;26164;51.138;16.952;2022-12-07T18:51:06;77315.47;;;-146.39;100.00
40460;BME280;26164;51.138;16.952;2022-12-07T18:54:04;77317.50;;;-146.39;100.00
40460;BME280;26164;51.138;16.952;2022-12-07T18:57:19;77315.47;;;-146.39;100.00
40460;BME280;26164;51.138;16.952;2022-12-07T19:03:59;77323.63;;;-146.39;100.00
40460;BME280;26164;51.138;16.952;2022-12-07T19:11:28;77323.63;;;-146.39;100.00
40460;BME280;26164;51.138;16.952;2022-12-07T19:14:36;77315.47;;;-146.39;100.00
40460;BME280;26164;51.138;16.952;2022-12-07T19:17:55;77311.38;;;-146.39;100.00
40460;BME280;26164;51.138;16.952;2022-12-07T19:20:44;77299.13;;;-146.39;100.00
40460;BME280;26164;51.138;16.952;2022-12-07T19:23:38;77299.13;;;-146.39;100.00
40460;BME280;26164;51.138;16.952;2022-12-07T19:27:14;77301.16;;;-146.39;100.00
40460;BME280;26164;51.138;16.952;2022-12-07T19:31:11;77301.16;;;-146.39;100.00
40460;BME280;26164;51.138;16.952;2022-12-07T19:34:14;77299.13;;;-146.39;100.00
40460;BME280;26164;51.138;16.952;2022-12-07T19:42:31;77282.78;;;-146.39;100.00
40460;BME280;26164;51.138;16.952;2022-12-07T19:45:32;77276.66;;;-146.39;100.00
40460;BME280;26164;51.138;16.952;2022-12-07T20:05:00;77235.81;;;-146.39;100.00
40460;BME280;26164;51.138;16.952;2022-12-07T20:52:38;77123.53;;;-146.39;100.00
40460;BME280;26164;51.138;16.952;2022-12-07T20:55:07;77125.56;;;-146.39;100.00
40460;BME280;26164;51.138;16.952;2022-12-07T20:57:57;77115.34;;;-146.39;100.00
40460;BME280;26164;51.138;16.952;2022-12-07T21:01:34;77105.16;;;-146.39;100.00
40460;BME280;26164;51.138;16.952;2022-12-07T21:29:17;77092.91;;;-146.39;100.00
40460;BME280;26164;51.138;16.952;2022-12-07T21:33:15;77090.84;;;-146.39;100.00
40460;BME280;26164;51.138;16.952;2022-12-07T21:36:33;77094.94;;;-146.39;100.00
40460;BME280;26164;51.138;16.952;2022-12-07T21:43:20;77094.94;;;-146.39;100.00
40460;BME280;26164;51.138;16.952;2022-12-07T21:46:29;77094.94;;;-146.39;100.00
40460;BME280;26164;51.138;16.952;2022-12-07T21:49:32;77090.84;;;-146.39;100.00
40460;BME280;26164;51.138;16.952;2022-12-07T21:52:17;77090.84;;;-146.39;100.00
40460;BME280;26164;51.138;16.952;2022-12-07T21:55:27;77096.97;;;-146.39;100.00
40460;BME280;26164;51.138;16.952;2022-12-07T21:58:10;77094.94;;;-146.39;100.00
40460;BME280;26164;51.138;16.952;2022-12-07T22:01:44;77094.94;;;-146.39;100.00
40460;BME280;26164;51.138;16.952;2022-12-07T22:04:33;77103.09;;;-146.39;100.00
40460;BME280;26164;51.138;16.952;2022-12-07T22:07:57;77107.19;;;-146.39;100.00
40460;BME280;26164;51.138;16.952;2022-12-07T22:28:27;77133.72;;;-146.39;100.00
40460;BME280;26164;51.138;16.952;2022-12-07T22:35:19;77135.78;;;-146.39;100.00
40460;BME280;26164;51.138;16.952;2022-12-07T23:23:15;77160.28;;;-146.39;100.00